Time;durP1;ratioP1;P1;durP2;ratioP2;P2;SDS_P1;SDS_P2;PMS_P1;PMS_P2;Temp;Humidity;BMP_temperature;BMP_pressure;BME280_temperature;BME280_humidity;BME280_pressure;Samples;Min_cycle;Max_cycle;Signal;HPM_P1;HPM_P2
2023/04/13 00:00:35;;;;;;;;;2.00;1.00;;;;;21.04;35.16;99838.75;5090198;28;45461;-37
2023/04/13 00:03:01;;;;;;;;;1.50;1.00;;;;;21.00;35.14;99833.69;5091600;27;45337;-37
2023/04/13 00:05:27;;;;;;;;;3.00;0.00;;;;;21.00;35.18;99844.22;5083280;27;45411;-38
2023/04/13 00:07:53;;;;;;;;;1.75;1.00;;;;;20.99;35.04;99847.84;5093169;28;45591;-38
2023/04/13 00:10:19;;;;;;;;;1.00;1.00;;;;;20.98;34.95;99850.56;5087567;27;45251;-38
2023/04/13 00:12:48;;;;;;;;;1.00;1.00;;;;;20.97;35.30;99844.47;5082395;27;45540;-37
2023/04/13 00:15:16;;;;;;;;;1.00;1.00;;;;;20.95;35.20;99843.75;5080890;27;46396;-37
2023/04/13 00:17:41;;;;;;;;;0.50;0.50;;;;;20.95;34.91;99856.91;5082689;27;45287;-37
2023/04/13 00:20:14;;;;;;;;;0.00;0.00;;;;;20.93;35.21;99863.25;5089363;27;45240;-37
2023/04/13 00:22:43;;;;;;;;;3.25;1.00;;;;;20.92;35.05;99862.38;5097171;27;45323;-38
2023/04/13 00:25:10;;;;;;;;;0.00;0.00;;;;;20.92;34.73;99854.50;5098506;27;46303;-37
2023/04/13 00:27:38;;;;;;;;;1.75;1.75;;;;;20.89;35.19;99852.06;5089727;27;45749;-37
2023/04/13 00:30:08;;;;;;;;;0.00;0.00;;;;;20.89;35.16;99845.97;5092847;27;45456;-37
2023/04/13 00:32:35;;;;;;;;;4.00;0.00;;;;;20.87;34.95;99855.78;5087674;27;45254;-36
2023/04/13 00:35:00;;;;;;;;;3.00;0.25;;;;;20.85;35.25;99848.00;5088137;27;45598;-36
2023/04/13 00:37:29;;;;;;;;;1.00;1.00;;;;;20.85;34.91;99866.44;5083825;27;45153;-36
2023/04/13 00:39:54;;;;;;;;;2.00;1.00;;;;;20.84;35.29;99862.13;5085628;27;45283;-36
2023/04/13 00:42:20;;;;;;;;;0.50;0.50;;;;;20.82;34.82;99861.38;5086300;27;45266;-36
2023/04/13 00:44:45;;;;;;;;;0.50;0.50;;;;;20.81;34.93;99865.81;5085168;27;45399;-36
2023/04/13 00:47:11;;;;;;;;;2.00;1.00;;;;;20.81;34.86;99859.69;5085853;28;45387;-36
2023/04/13 00:49:36;;;;;;;;;0.75;0.00;;;;;20.79;35.14;99862.44;5085936;27;45446;-36
2023/04/13 00:52:02;;;;;;;;;0.75;0.75;;;;;20.77;35.17;99856.44;5085786;28;45685;-36
2023/04/13 00:54:28;;;;;;;;;3.00;1.00;;;;;20.76;34.99;99851.28;5086350;27;46958;-36
2023/04/13 00:56:56;;;;;;;;;2.00;1.00;;;;;20.76;34.86;99849.50;5079835;27;45215;-37
2023/04/13 00:59:22;;;;;;;;;0.00;0.00;;;;;20.75;35.37;99844.34;5079924;27;45236;-37
2023/04/13 01:01:55;;;;;;;;;2.00;0.00;;;;;20.74;35.30;99845.25;5079870;27;45522;-36
2023/04/13 01:04:22;;;;;;;;;1.50;0.00;;;;;20.73;35.21;99854.94;5079095;27;46420;-36
2023/04/13 01:07:07;;;;;;;;;0.00;0.00;;;;;20.72;35.47;99855.06;5080242;27;45888;-37
2023/04/13 01:09:58;;;;;;;;;1.25;1.00;;;;;20.72;35.01;99860.31;5079958;27;45346;-36
2023/04/13 01:12:40;;;;;;;;;1.00;1.00;;;;;20.68;35.31;99855.28;5081870;27;45330;-36
2023/04/13 01:15:11;;;;;;;;;0.00;0.00;;;;;20.69;35.50;99859.59;5086863;27;47125;-37
2023/04/13 01:17:40;;;;;;;;;2.00;1.50;;;;;20.68;35.12;99859.72;5086324;27;45665;-36
2023/04/13 01:20:14;;;;;;;;;1.00;1.00;;;;;20.67;35.24;99864.13;5088857;27;45367;-37
2023/04/13 01:23:02;;;;;;;;;1.00;1.00;;;;;20.67;35.07;99863.28;5101806;27;44796;-37
2023/04/13 01:25:46;;;;;;;;;0.00;0.00;;;;;20.66;35.51;99862.47;5082862;27;46226;-36
2023/04/13 01:28:14;;;;;;;;;1.00;1.00;;;;;20.66;35.10;99856.34;5079879;27;45891;-36
2023/04/13 01:30:41;;;;;;;;;1.75;0.00;;;;;20.65;34.93;99855.50;5085811;27;45211;-36
2023/04/13 01:33:08;;;;;;;;;1.00;1.00;;;;;20.64;35.21;99853.81;5089014;27;45144;-36
2023/04/13 01:35:35;;;;;;;;;1.00;1.00;;;;;20.63;35.26;99857.41;5080875;27;46889;-36
2023/04/13 01:38:01;;;;;;;;;0.25;0.25;;;;;20.62;35.60;99860.13;5079086;28;45314;-37
2023/04/13 01:40:28;;;;;;;;;0.00;0.00;;;;;20.63;35.45;99867.06;5079726;27;45454;-37
2023/04/13 01:42:55;;;;;;;;;1.00;0.00;;;;;20.60;35.33;99854.16;5083404;27;45631;-37
2023/04/13 01:45:25;;;;;;;;;1.00;1.00;;;;;20.60;35.42;99873.41;5086643;27;46192;-37
2023/04/13 01:48:10;;;;;;;;;2.00;0.00;;;;;20.59;35.33;99855.94;5080703;28;45455;-36
2023/04/13 01:50:50;;;;;;;;;0.00;0.00;;;;;20.60;35.65;99857.63;5084575;27;45871;-36
2023/04/13 01:53:27;;;;;;;;;1.00;0.00;;;;;20.57;35.00;99876.25;5080675;27;45331;-36
2023/04/13 01:55:53;;;;;;;;;0.75;0.00;;;;;20.57;35.43;99873.63;5078463;27;45699;-36
2023/04/13 01:58:19;;;;;;;;;1.25;1.00;;;;;20.55;35.57;99881.63;5079473;27;45392;-36
2023/04/13 02:00:45;;;;;;;;;1.00;0.00;;;;;20.53;35.18;99877.44;5079612;27;45338;-37
2023/04/13 02:03:14;;;;;;;;;2.00;1.00;;;;;20.54;35.56;99879.13;5085389;27;45354;-37
2023/04/13 02:05:40;;;;;;;;;0.50;0.00;;;;;20.53;34.98;99875.63;5095184;27;46357;-37
2023/04/13 02:08:07;;;;;;;;;1.25;0.50;;;;;20.53;35.64;99874.81;5098894;27;45145;-37
2023/04/13 02:10:35;;;;;;;;;1.25;1.25;;;;;20.52;35.50;99873.94;5100485;28;45355;-37
2023/04/13 02:13:02;;;;;;;;;2.00;1.00;;;;;20.51;35.26;99876.69;5094794;27;44892;-37
2023/04/13 02:15:28;;;;;;;;;0.00;0.00;;;;;20.50;35.23;99872.38;5089282;27;46281;-37
2023/04/13 02:17:53;;;;;;;;;2.50;0.75;;;;;20.50;35.10;99888.19;5089097;27;45317;-37
2023/04/13 02:20:19;;;;;;;;;3.00;1.00;;;;;20.49;35.12;99886.50;5087629;27;45332;-37
2023/04/13 02:22:47;;;;;;;;;0.75;0.25;;;;;20.48;35.08;99887.44;5086176;27;45461;-37
2023/04/13 02:25:14;;;;;;;;;2.00;1.00;;;;;20.48;35.47;99897.97;5090049;27;46266;-36
2023/04/13 02:27:40;;;;;;;;;0.50;0.50;;;;;20.47;35.47;99896.28;5086028;27;45200;-37
2023/04/13 02:30:07;;;;;;;;;0.50;0.50;;;;;20.47;35.70;99904.16;5079415;28;45302;-37
2023/04/13 02:32:34;;;;;;;;;1.00;1.00;;;;;20.47;35.11;99904.16;5078811;27;45416;-37
2023/04/13 02:35:00;;;;;;;;;5.00;1.00;;;;;20.46;35.60;99905.13;5078331;27;45676;-37
2023/04/13 02:37:28;;;;;;;;;1.75;1.00;;;;;20.45;35.19;99904.28;5083449;27;45373;-36
2023/04/13 02:39:54;;;;;;;;;1.00;1.00;;;;;20.45;35.68;99901.66;5078251;28;45314;-36
2023/04/13 02:42:20;;;;;;;;;1.00;1.00;;;;;20.45;35.66;99911.38;5078571;27;45301;-37
2023/04/13 02:44:46;;;;;;;;;0.00;0.00;;;;;20.44;35.28;99899.16;5077809;27;46870;-37
2023/04/13 02:47:11;;;;;;;;;1.00;1.00;;;;;20.43;35.46;99903.56;5077761;27;45468;-36
2023/04/13 02:49:36;;;;;;;;;1.50;1.50;;;;;20.42;35.17;99901.88;5077263;28;45978;-37
2023/04/13 02:52:02;;;;;;;;;0.00;0.00;;;;;20.39;35.18;99905.56;5078510;28;45676;-37
2023/04/13 02:54:27;;;;;;;;;0.00;0.00;;;;;20.39;35.70;99913.47;5077836;27;45421;-37
2023/04/13 02:56:52;;;;;;;;;0.25;0.25;;;;;20.41;35.18;99901.97;5077799;28;45404;-37
2023/04/13 02:59:19;;;;;;;;;1.25;1.00;;;;;20.39;35.39;99913.47;5077986;28;45216;-36
2023/04/13 03:01:44;;;;;;;;;0.00;0.00;;;;;20.37;35.36;99904.81;5080187;28;45275;-36
2023/04/13 03:04:10;;;;;;;;;2.00;1.00;;;;;20.39;35.91;99917.91;5088005;27;45366;-37
2023/04/13 03:06:36;;;;;;;;;1.00;1.00;;;;;20.42;35.23;99916.84;5082440;27;45229;-37
2023/04/13 03:09:02;;;;;;;;;1.25;1.00;;;;;20.44;35.66;99909.69;5081061;27;45250;-37
2023/04/13 03:11:27;;;;;;;;;2.00;1.00;;;;;20.47;35.34;99905.03;5078159;27;45513;-37
2023/04/13 03:13:53;;;;;;;;;1.00;0.00;;;;;20.49;35.46;99905.78;5077191;28;45406;-37
2023/04/13 03:16:19;;;;;;;;;1.75;1.00;;;;;20.52;35.24;99902.91;5077517;27;45370;-37
2023/04/13 03:18:45;;;;;;;;;2.00;0.50;;;;;20.54;35.12;99906.28;5077335;27;45231;-37
2023/04/13 03:21:11;;;;;;;;;1.75;1.25;;;;;20.57;35.42;99915.75;5078899;28;45511;-37
2023/04/13 03:23:37;;;;;;;;;2.00;0.00;;;;;20.57;35.34;99921.00;5085755;28;46048;-37
2023/04/13 03:26:02;;;;;;;;;0.25;0.25;;;;;20.58;35.19;99917.44;5088072;27;45478;-37
2023/04/13 03:28:27;;;;;;;;;1.75;0.50;;;;;20.60;35.86;99922.59;5095531;27;45350;-37
2023/04/13 03:30:53;;;;;;;;;0.25;0.25;;;;;20.61;35.42;99925.13;5088853;28;45193;-37
2023/04/13 03:33:18;;;;;;;;;1.00;1.00;;;;;20.64;35.66;99932.81;5088821;27;47031;-37
2023/04/13 03:35:43;;;;;;;;;1.00;1.00;;;;;20.67;35.47;99923.84;5088725;28;67728;-37
2023/04/13 03:38:09;;;;;;;;;0.25;0.00;;;;;20.65;35.25;99928.38;5089349;28;49258;-38
2023/04/13 03:40:34;;;;;;;;;1.50;1.00;;;;;20.68;35.28;99934.25;5089090;27;45212;-44
2023/04/13 03:43:00;;;;;;;;;1.00;1.00;;;;;20.69;35.75;99941.22;5086986;28;47726;-38
2023/04/13 03:45:25;;;;;;;;;1.25;1.25;;;;;20.69;35.74;99943.84;5087062;28;45363;-38
2023/04/13 03:47:51;;;;;;;;;1.00;1.00;;;;;20.70;35.25;99936.81;5096710;28;44759;-37
2023/04/13 03:50:17;;;;;;;;;1.00;0.00;;;;;20.71;35.50;99941.13;5099469;27;45062;-38
2023/04/13 03:52:42;;;;;;;;;0.00;0.00;;;;;20.71;35.48;99949.03;5080710;27;45573;-37
2023/04/13 03:55:08;;;;;;;;;1.00;0.00;;;;;20.71;35.24;99943.75;5080072;27;45493;-37
2023/04/13 03:57:35;;;;;;;;;1.00;0.00;;;;;20.72;35.38;99960.38;5081475;27;45284;-37
2023/04/13 04:00:01;;;;;;;;;2.00;1.00;;;;;20.72;35.41;99955.97;5083484;27;45447;-37
2023/04/13 04:02:26;;;;;;;;;6.25;0.00;;;;;20.71;35.34;99959.56;5082766;27;46113;-38
2023/04/13 04:04:52;;;;;;;;;0.00;0.00;;;;;20.71;35.38;99959.56;5082195;27;45334;-37
2023/04/13 04:07:22;;;;;;;;;0.00;0.00;;;;;20.70;35.64;99963.13;5090969;28;45310;-38
2023/04/13 04:09:47;;;;;;;;;1.00;1.00;;;;;20.70;35.69;99966.59;5095590;27;45378;-39
2023/04/13 04:12:13;;;;;;;;;3.50;1.00;;;;;20.70;35.47;99971.88;5084832;28;45445;-37
2023/04/13 04:14:38;;;;;;;;;0.75;0.75;;;;;20.69;35.43;99975.44;5082498;28;45372;-37
2023/04/13 04:17:03;;;;;;;;;1.00;0.00;;;;;20.69;35.35;99969.34;5086028;27;45320;-38
2023/04/13 04:19:29;;;;;;;;;0.00;0.00;;;;;20.70;35.18;99971.03;5085839;27;45614;-37
2023/04/13 04:21:56;;;;;;;;;2.00;1.00;;;;;20.68;35.42;99971.13;5083433;28;53333;-38
2023/04/13 04:24:22;;;;;;;;;0.00;0.00;;;;;20.68;35.05;99971.13;5082466;27;45514;-38
2023/04/13 04:26:48;;;;;;;;;1.00;1.00;;;;;20.67;35.41;99974.69;5086902;27;45335;-37
2023/04/13 04:29:20;;;;;;;;;2.00;0.00;;;;;20.68;35.58;99986.09;5081742;27;45279;-38
2023/04/13 04:31:51;;;;;;;;;1.25;0.25;;;;;20.66;35.52;99988.84;5079704;27;46571;-37
2023/04/13 04:34:17;;;;;;;;;1.00;0.00;;;;;20.66;35.60;99988.84;5079854;27;45739;-37
2023/04/13 04:36:44;;;;;;;;;3.00;0.75;;;;;20.65;35.04;100008.22;5078543;27;45350;-38
2023/04/13 04:39:09;;;;;;;;;1.50;0.50;;;;;20.65;35.30;99996.81;5080476;27;45843;-37
2023/04/13 04:41:36;;;;;;;;;0.00;0.00;;;;;20.65;35.63;99997.69;5081698;27;46091;-37
2023/04/13 04:44:02;;;;;;;;;0.50;0.00;;;;;20.65;35.49;100008.22;5084502;27;45727;-37
2023/04/13 04:46:28;;;;;;;;;0.00;0.00;;;;;20.64;35.24;100005.66;5083842;27;45361;-37
2023/04/13 04:48:53;;;;;;;;;0.00;0.00;;;;;20.62;35.58;100005.78;5084502;27;45533;-37
2023/04/13 04:51:24;;;;;;;;;1.00;0.50;;;;;20.63;35.65;100020.63;5089317;27;46255;-37
2023/04/13 04:53:50;;;;;;;;;0.50;0.50;;;;;20.63;35.73;100017.16;5086947;27;45824;-37
2023/04/13 04:56:16;;;;;;;;;1.75;0.00;;;;;20.61;35.36;100017.25;5082680;28;45291;-37
2023/04/13 04:58:41;;;;;;;;;2.00;2.00;;;;;20.60;35.68;100020.84;5081731;28;45654;-37
2023/04/13 05:01:07;;;;;;;;;2.00;0.50;;;;;20.60;35.26;100026.09;5079497;28;51954;-37
2023/04/13 05:03:33;;;;;;;;;1.50;0.75;;;;;20.58;35.41;100025.38;5080094;27;45338;-37
2023/04/13 05:05:58;;;;;;;;;1.25;1.00;;;;;20.59;35.63;100034.94;5080079;27;45241;-37
2023/04/13 05:08:23;;;;;;;;;1.75;1.00;;;;;20.59;35.54;100034.94;5078227;28;45246;-37
2023/04/13 05:10:49;;;;;;;;;3.75;0.75;;;;;20.58;35.29;100035.06;5080139;28;48236;-37
2023/04/13 05:13:14;;;;;;;;;1.50;0.25;;;;;20.57;35.23;100047.38;5081379;28;45283;-36
2023/04/13 05:15:39;;;;;;;;;0.50;0.00;;;;;20.58;35.53;100048.22;5080767;27;45270;-36
2023/04/13 05:18:05;;;;;;;;;5.00;1.00;;;;;20.57;35.75;100046.53;5087256;28;45413;-37
2023/04/13 05:20:33;;;;;;;;;2.00;0.00;;;;;20.54;35.57;100051.06;5096961;28;50872;-36
2023/04/13 05:22:59;;;;;;;;;0.00;0.00;;;;;20.54;35.92;100063.41;5099923;27;45102;-37
2023/04/13 05:25:24;;;;;;;;;1.25;0.00;;;;;20.54;35.58;100058.13;5096369;27;45216;-37
2023/04/13 05:27:50;;;;;;;;;1.75;0.50;;;;;20.54;35.82;100073.94;5094992;27;45216;-37
2023/04/13 05:30:16;;;;;;;;;0.75;0.00;;;;;20.53;35.39;100075.69;5097697;27;45219;-37
2023/04/13 05:32:42;;;;;;;;;0.00;0.00;;;;;20.51;35.62;100071.50;5101629;27;45181;-37
2023/04/13 05:35:09;;;;;;;;;0.50;0.50;;;;;20.50;35.50;100067.16;5099614;27;45428;-37
2023/04/13 05:37:34;;;;;;;;;0.00;0.00;;;;;20.50;35.40;100073.28;5087806;27;45181;-38
2023/04/13 05:39:59;;;;;;;;;1.00;1.00;;;;;20.50;35.45;100077.69;5084849;27;45469;-37
2023/04/13 05:42:25;;;;;;;;;0.75;0.75;;;;;20.50;35.49;100072.44;5089645;28;45259;-37
2023/04/13 05:44:50;;;;;;;;;0.75;0.75;;;;;20.49;35.26;100076.00;5092916;27;44880;-37
2023/04/13 05:47:20;;;;;;;;;2.25;1.00;;;;;20.50;35.93;100085.59;5093291;27;45164;-37
2023/04/13 05:49:45;;;;;;;;;1.00;1.00;;;;;20.49;35.39;100082.13;5091689;27;45470;-37
2023/04/13 05:52:11;;;;;;;;;2.25;1.00;;;;;20.47;35.71;100081.38;5094487;27;45289;-37
2023/04/13 05:54:36;;;;;;;;;1.50;1.00;;;;;20.47;35.53;100083.16;5099415;27;45283;-37
2023/04/13 05:57:02;;;;;;;;;3.25;1.00;;;;;20.43;35.28;100076.44;5090024;27;45453;-37
2023/04/13 05:59:27;;;;;;;;;0.75;0.75;;;;;20.41;35.19;100083.59;5092934;28;46315;-37
2023/04/13 06:01:54;;;;;;;;;4.00;1.00;;;;;20.38;35.11;100082.84;5080107;27;50128;-37
2023/04/13 06:04:21;;;;;;;;;0.75;0.75;;;;;20.37;35.65;100089.03;5085715;28;45423;-37
2023/04/13 06:06:46;;;;;;;;;1.00;1.00;;;;;20.35;35.07;100090.94;5094648;28;44746;-37
2023/04/13 06:09:13;;;;;;;;;3.50;1.00;;;;;20.34;35.35;100091.03;5090079;28;45342;-37
2023/04/13 06:11:38;;;;;;;;;3.50;1.00;;;;;20.33;35.06;100090.22;5091036;27;45390;-37
2023/04/13 06:14:04;;;;;;;;;3.00;1.00;;;;;20.33;35.48;100092.00;5089400;27;44726;-37
2023/04/13 06:16:29;;;;;;;;;2.00;1.00;;;;;20.31;35.25;100094.72;5090621;27;45235;-37
2023/04/13 06:18:54;;;;;;;;;2.00;1.00;;;;;20.30;34.95;100095.66;5086241;27;46428;-37
2023/04/13 06:21:20;;;;;;;;;3.00;2.00;;;;;20.28;35.35;100094.94;5095330;28;45351;-37
2023/04/13 06:23:45;;;;;;;;;1.00;1.00;;;;;20.29;35.24;100101.00;5099707;27;44991;-37
2023/04/13 06:26:10;;;;;;;;;2.25;1.00;;;;;20.27;35.54;100101.13;5094338;28;45438;-38
2023/04/13 06:28:36;;;;;;;;;2.00;0.50;;;;;20.27;35.27;100113.47;5091437;28;46573;-38
2023/04/13 06:31:01;;;;;;;;;0.00;0.00;;;;;20.26;35.25;100112.59;5081104;27;45270;-39
2023/04/13 06:33:27;;;;;;;;;3.50;1.25;;;;;20.24;34.96;100117.09;5080708;27;45354;-38
2023/04/13 06:35:52;;;;;;;;;1.00;1.00;;;;;20.24;35.06;100109.22;5078959;28;45406;-38
2023/04/13 06:38:18;;;;;;;;;2.75;1.50;;;;;20.23;34.82;100118.06;5078801;27;48606;-37
2023/04/13 06:40:44;;;;;;;;;1.50;1.00;;;;;20.23;34.90;100112.78;5078403;27;45829;-37
2023/04/13 06:43:10;;;;;;;;;1.00;1.00;;;;;20.21;35.30;100109.44;5079096;27;45283;-37
2023/04/13 06:45:36;;;;;;;;;4.00;1.50;;;;;20.20;34.99;100113.84;5084051;27;45177;-37
2023/04/13 06:48:01;;;;;;;;;4.50;2.00;;;;;20.19;35.28;100111.31;5084939;28;46006;-37
2023/04/13 06:50:27;;;;;;;;;3.75;0.75;;;;;20.20;35.21;100118.28;5079664;27;45837;-37
2023/04/13 06:52:52;;;;;;;;;3.50;2.00;;;;;20.19;35.31;100112.16;5078454;27;45272;-37
2023/04/13 06:55:17;;;;;;;;;2.25;2.00;;;;;20.18;35.27;100115.72;5079378;27;45532;-37
2023/04/13 06:57:43;;;;;;;;;2.00;1.00;;;;;20.19;35.04;100116.59;5082769;27;45397;-37
2023/04/13 07:00:13;;;;;;;;;1.00;1.00;;;;;20.18;35.57;100114.91;5084484;27;44808;-37
2023/04/13 07:02:38;;;;;;;;;4.00;2.00;;;;;20.18;35.37;100109.63;5087621;27;45233;-36
2023/04/13 07:05:05;;;;;;;;;6.00;2.00;;;;;20.18;34.80;100110.47;5085265;28;45625;-37
2023/04/13 07:07:32;;;;;;;;;3.75;1.25;;;;;20.17;35.40;100116.69;5086517;27;46432;-37
2023/04/13 07:09:57;;;;;;;;;3.00;2.00;;;;;20.19;35.54;100116.59;5085051;27;45178;-37
2023/04/13 07:12:23;;;;;;;;;1.75;1.75;;;;;20.20;35.58;100107.75;5084925;27;45813;-38
2023/04/13 07:14:48;;;;;;;;;1.75;1.00;;;;;20.22;35.25;100116.38;5082503;27;46386;-37
2023/04/13 07:17:13;;;;;;;;;1.00;1.00;;;;;20.26;35.56;100123.13;5083597;28;60557;-36
2023/04/13 07:19:45;;;;;;;;;2.50;2.00;;;;;20.28;35.44;100115.16;5083137;27;45374;-37
2023/04/13 07:22:11;;;;;;;;;3.75;1.25;;;;;20.31;35.23;100123.69;5083752;27;45235;-37
2023/04/13 07:24:36;;;;;;;;;3.75;2.00;;;;;20.31;35.59;100125.44;5088566;28;45205;-38
2023/04/13 07:27:01;;;;;;;;;5.00;1.25;;;;;20.33;35.48;100139.34;5097186;27;46040;-37
2023/04/13 07:29:27;;;;;;;;;3.75;1.50;;;;;20.34;35.18;100131.34;5101172;27;45231;-37
2023/04/13 07:32:01;;;;;;;;;6.50;2.00;;;;;20.34;35.26;100136.63;5095758;27;44583;-37
2023/04/13 07:34:26;;;;;;;;;2.00;2.00;;;;;20.35;35.24;100137.47;5085465;27;45166;-37
2023/04/13 07:36:52;;;;;;;;;3.25;2.00;;;;;20.34;35.34;100136.63;5089288;27;46374;-37
2023/04/13 07:39:18;;;;;;;;;3.00;1.50;;;;;20.33;34.89;100142.84;5092275;28;45171;-38
2023/04/13 07:41:45;;;;;;;;;1.50;1.00;;;;;20.35;34.93;100148.81;5090333;27;45314;-37
2023/04/13 07:44:10;;;;;;;;;6.50;1.00;;;;;20.34;35.10;100143.69;5083084;27;45298;-37
2023/04/13 07:46:37;;;;;;;;;1.75;1.00;;;;;20.35;35.14;100146.19;5080773;27;45528;-37
2023/04/13 07:49:02;;;;;;;;;2.00;1.00;;;;;20.35;35.46;100148.81;5080462;27;45384;-37
2023/04/13 07:51:28;;;;;;;;;2.00;2.00;;;;;20.36;35.10;100142.63;5080706;27;45844;-37
2023/04/13 07:53:54;;;;;;;;;3.00;1.25;;;;;20.37;35.19;100154.84;5080995;27;45398;-37
2023/04/13 07:56:20;;;;;;;;;3.00;1.00;;;;;20.38;34.91;100155.69;5081370;27;47456;-37
2023/04/13 07:58:45;;;;;;;;;3.50;1.00;;;;;20.37;35.53;100162.75;5082898;27;45203;-36
2023/04/13 08:01:11;;;;;;;;;3.00;2.00;;;;;20.36;35.29;100161.03;5087387;27;45324;-37
2023/04/13 08:03:37;;;;;;;;;3.25;2.00;;;;;20.36;35.13;100171.56;5087289;28;45536;-37
2023/04/13 08:06:07;;;;;;;;;1.00;0.75;;;;;20.36;34.89;100166.31;5086903;27;46740;-38
2023/04/13 08:08:32;;;;;;;;;4.00;1.50;;;;;20.34;35.31;100165.56;5085752;27;45460;-37
2023/04/13 08:10:58;;;;;;;;;1.50;1.50;;;;;20.37;35.09;100162.75;5089106;28;45407;-37
2023/04/13 08:13:23;;;;;;;;;2.50;1.00;;;;;20.38;35.12;100169.69;5091190;28;45563;-37
2023/04/13 08:15:49;;;;;;;;;1.25;1.25;;;;;20.38;35.23;100174.97;5094749;27;45324;-37
2023/04/13 08:18:14;;;;;;;;;3.00;2.00;;;;;20.37;34.73;100178.53;5097783;28;44725;-37
2023/04/13 08:20:39;;;;;;;;;5.00;2.00;;;;;20.39;34.71;100175.81;5096169;28;44716;-36
2023/04/13 08:23:05;;;;;;;;;3.00;3.00;;;;;20.38;35.16;100182.84;5097636;27;45139;-37
2023/04/13 08:25:31;;;;;;;;;1.50;1.00;;;;;20.38;34.86;100177.59;5100087;27;45402;-37
2023/04/13 08:27:56;;;;;;;;;4.00;2.25;;;;;20.37;34.65;100178.53;5095964;27;45778;-37
2023/04/13 08:30:22;;;;;;;;;2.50;2.50;;;;;20.39;34.68;100184.53;5092276;27;45282;-37
2023/04/13 08:32:47;;;;;;;;;1.00;1.00;;;;;20.38;34.77;100174.97;5083115;28;45263;-36
2023/04/13 08:35:14;;;;;;;;;2.25;1.50;;;;;20.41;34.88;100178.34;5083103;28;45998;-37
2023/04/13 08:37:40;;;;;;;;;3.00;2.00;;;;;20.40;34.61;100177.47;5085435;27;45275;-37
2023/04/13 08:40:06;;;;;;;;;2.50;1.00;;;;;20.42;34.94;100185.28;5085175;27;45309;-37
2023/04/13 08:42:33;;;;;;;;;3.25;2.00;;;;;20.42;34.90;100180.03;5087873;28;45500;-37
2023/04/13 08:44:59;;;;;;;;;2.00;1.00;;;;;20.42;34.80;100185.28;5082484;27;46100;-37
2023/04/13 08:47:26;;;;;;;;;2.75;2.00;;;;;20.42;34.65;100188.75;5081123;28;45825;-36
2023/04/13 08:49:55;;;;;;;;;1.75;1.25;;;;;20.43;35.09;100189.63;5081253;27;45280;-37
2023/04/13 08:52:21;;;;;;;;;4.75;1.25;;;;;20.43;34.72;100192.25;5080532;27;45329;-34
2023/04/13 08:54:46;;;;;;;;;2.25;0.00;;;;;20.43;34.60;100194.88;5080228;27;46123;-36
2023/04/13 08:57:13;;;;;;;;;1.25;1.00;;;;;20.41;34.62;100189.69;5081874;27;45337;-34
2023/04/13 08:59:42;;;;;;;;;4.00;2.75;;;;;20.39;34.84;100189.81;5081266;28;45257;-36
2023/04/13 09:02:08;;;;;;;;;3.00;2.00;;;;;20.40;35.01;100193.28;5086487;27;45256;-35
2023/04/13 09:04:35;;;;;;;;;3.25;1.00;;;;;20.38;34.60;100196.00;5081962;27;46546;-35
2023/04/13 09:07:03;;;;;;;;;1.75;1.75;;;;;20.38;34.89;100195.19;5084640;28;45401;-35
2023/04/13 09:09:31;;;;;;;;;1.00;1.00;;;;;20.40;34.95;100188.00;5082941;27;45300;-35
2023/04/13 09:11:57;;;;;;;;;4.00;2.00;;;;;20.42;34.67;100199.28;5085034;27;45301;-37
2023/04/13 09:14:23;;;;;;;;;2.00;1.25;;;;;20.43;35.04;100200.97;5087720;27;46664;-36
2023/04/13 09:16:48;;;;;;;;;2.50;1.00;;;;;20.45;35.15;100193.81;5085789;28;45377;-35
2023/04/13 09:19:14;;;;;;;;;2.00;2.00;;;;;20.48;34.88;100200.69;5086721;27;45349;-36
2023/04/13 09:21:41;;;;;;;;;2.00;1.00;;;;;20.47;34.79;100202.47;5091528;28;45382;-36
2023/04/13 09:24:08;;;;;;;;;2.00;0.00;;;;;20.48;34.83;100200.69;5080812;28;45432;-36
2023/04/13 09:26:44;;;;;;;;;1.75;1.00;;;;;20.49;35.06;100191.84;5079452;27;45732;-36
2023/04/13 09:29:13;;;;;;;;;1.00;1.00;;;;;20.51;35.49;100189.94;5085317;27;45173;-36
2023/04/13 09:31:39;;;;;;;;;3.00;0.75;;;;;20.51;34.92;100187.31;5083092;28;45447;-37
2023/04/13 09:34:08;;;;;;;;;1.00;1.00;;;;;20.53;34.77;100190.69;5080244;27;45358;-36
2023/04/13 09:36:34;;;;;;;;;1.75;1.00;;;;;20.54;35.13;100184.50;5078764;27;45749;-36
2023/04/13 09:39:00;;;;;;;;;1.75;1.00;;;;;20.54;35.19;100193.22;5079248;27;45322;-37
2023/04/13 09:41:33;;;;;;;;;1.00;1.00;;;;;20.55;35.36;100200.19;5098067;28;45654;-35
2023/04/13 09:44:14;;;;;;;;;1.00;1.00;;;;;20.57;35.30;100200.06;5094223;27;45279;-36
2023/04/13 09:46:40;;;;;;;;;1.75;0.25;;;;;20.55;35.09;100202.81;5079241;27;45439;-36
2023/04/13 09:49:05;;;;;;;;;1.00;1.00;;;;;20.55;34.90;100201.97;5079117;28;45461;-35
2023/04/13 09:51:39;;;;;;;;;3.00;1.00;;;;;20.55;35.22;100212.50;5079413;27;45604;-35
2023/04/13 09:54:05;;;;;;;;;1.25;1.00;;;;;20.52;35.09;100205.63;5081102;27;46648;-35
2023/04/13 09:56:47;;;;;;;;;1.00;1.00;;;;;20.50;35.34;100201.41;5086408;27;45322;-36
2023/04/13 09:59:13;;;;;;;;;1.00;1.00;;;;;20.49;35.28;100205.84;5080301;27;45250;-40
2023/04/13 10:01:39;;;;;;;;;1.00;1.00;;;;;20.47;34.76;100206.88;5079457;27;45566;-36
2023/04/13 10:04:06;;;;;;;;;1.00;1.00;;;;;20.44;34.95;100204.47;5079230;27;46352;-36
2023/04/13 10:06:37;;;;;;;;;2.00;0.00;;;;;20.41;35.18;100199.41;5082109;27;45339;-36
2023/04/13 10:09:04;;;;;;;;;1.00;1.00;;;;;20.40;34.83;100193.28;5084357;27;45480;-37
2023/04/13 10:11:32;;;;;;;;;2.00;1.00;;;;;20.41;35.49;100186.22;5083723;27;45459;-37
2023/04/13 10:14:01;;;;;;;;;3.00;1.00;;;;;20.41;35.40;100189.69;5082629;27;45507;-37
2023/04/13 10:16:41;;;;;;;;;1.25;1.00;;;;;20.39;35.32;100192.44;5084113;27;45370;-37
2023/04/13 10:19:17;;;;;;;;;1.50;1.50;;;;;20.42;34.94;100195.81;5088400;27;44820;-37
2023/04/13 10:21:44;;;;;;;;;6.00;4.00;;;;;20.42;35.29;100185.28;5080250;27;45476;-37
2023/04/13 10:24:11;;;;;;;;;5.00;3.00;;;;;20.43;35.09;100187.81;5082346;27;46721;-37
2023/04/13 10:26:37;;;;;;;;;9.50;6.50;;;;;20.43;35.35;100197.50;5088354;27;45784;-37
2023/04/13 10:29:03;;;;;;;;;10.00;8.25;;;;;20.43;35.26;100187.81;5087002;27;45222;-37
2023/04/13 10:31:39;;;;;;;;;13.00;10.75;;;;;20.43;35.01;100181.72;5082774;28;45588;-37
2023/04/13 10:34:08;;;;;;;;;19.00;11.75;;;;;20.43;35.48;100186.97;5082174;27;46253;-37
2023/04/13 10:36:41;;;;;;;;;17.00;10.50;;;;;20.39;35.44;100184.53;5093134;27;45227;-37
2023/04/13 10:39:10;;;;;;;;;13.75;11.75;;;;;20.39;35.38;100181.09;5096546;27;44739;-37
2023/04/13 10:41:36;;;;;;;;;20.75;17.25;;;;;20.37;35.35;100178.53;5097044;27;44927;-37
2023/04/13 10:44:07;;;;;;;;;18.25;14.50;;;;;20.37;35.17;100186.44;5089765;27;46384;-38
2023/04/13 10:46:33;;;;;;;;;30.50;20.75;;;;;20.37;35.24;100182.97;5082334;27;46009;-38
2023/04/13 10:49:00;;;;;;;;;22.25;17.00;;;;;20.36;35.45;100186.53;5087184;28;45240;-37
2023/04/13 10:51:36;;;;;;;;;28.50;15.75;;;;;20.36;35.16;100179.47;5092085;27;44943;-37
2023/04/13 10:54:03;;;;;;;;;25.50;18.00;;;;;20.37;35.31;100188.22;5080814;27;45631;-37
2023/04/13 10:56:28;;;;;;;;;21.25;18.75;;;;;20.38;35.51;100182.84;5078746;27;45528;-37
2023/04/13 10:58:54;;;;;;;;;20.50;16.00;;;;;20.29;35.27;100170.28;5078102;27;45378;-37
2023/04/13 11:01:19;;;;;;;;;19.75;17.25;;;;;20.38;35.62;100190.75;5078392;28;45476;-37
2023/04/13 11:03:45;;;;;;;;;16.00;15.75;;;;;20.38;35.46;100187.28;5078795;27;46606;-37
2023/04/13 11:06:11;;;;;;;;;21.75;14.00;;;;;20.37;35.64;100189.06;5078509;27;45272;-37
2023/04/13 11:08:38;;;;;;;;;20.00;17.00;;;;;20.39;35.16;100191.59;5077634;27;45313;-37
2023/04/13 11:11:04;;;;;;;;;14.25;12.50;;;;;20.39;35.22;100197.69;5076511;28;45225;-37
2023/04/13 11:13:30;;;;;;;;;18.50;14.25;;;;;20.42;35.36;100198.44;5076922;27;46966;-37
2023/04/13 11:16:01;;;;;;;;;21.00;15.00;;;;;20.43;35.42;100186.97;5077258;27;45871;-36
2023/04/13 11:18:27;;;;;;;;;14.50;9.50;;;;;20.43;35.69;100185.19;5084743;27;45302;-37
2023/04/13 11:20:53;;;;;;;;;17.25;12.75;;;;;20.45;35.75;100187.72;5081733;27;45505;-37
2023/04/13 11:23:18;;;;;;;;;20.25;13.75;;;;;20.47;35.39;100193.72;5081100;27;45529;-37
2023/04/13 11:25:56;;;;;;;;;13.75;11.25;;;;;20.49;35.39;100183.94;5083350;27;45262;-37